Time;durP1;ratioP1;P1;durP2;ratioP2;P2;SDS_P1;SDS_P2;PMS_P1;PMS_P2;Temp;Humidity;BMP_temperature;BMP_pressure;BME280_temperature;BME280_humidity;BME280_pressure;Samples;Min_cycle;Max_cycle;Signal;HPM_P1;HPM_P2
2021/08/15 00:01:47;;;;;;;20.33;12.43;;;;;;;16.90;100.00;94099.88;5072664;28;20198;-78
2021/08/15 00:04:14;;;;;;;22.08;13.23;;;;;;;16.79;100.00;94104.09;5071785;28;20441;-78
2021/08/15 00:06:42;;;;;;;19.58;10.93;;;;;;;16.67;100.00;94103.28;5072634;28;20195;-79
2021/08/15 00:09:08;;;;;;;16.65;11.40;;;;;;;16.57;100.00;94096.78;5072545;28;20199;-79
2021/08/15 00:11:34;;;;;;;24.17;12.85;;;;;;;16.84;100.00;94091.03;5072655;28;20202;-77
2021/08/15 00:14:01;;;;;;;19.67;12.15;;;;;;;16.86;100.00;94096.09;5072653;28;20203;-77
2021/08/15 00:16:27;;;;;;;17.60;12.45;;;;;;;16.81;100.00;94091.50;5072491;28;20202;-76
2021/08/15 00:18:54;;;;;;;23.77;12.02;;;;;;;16.89;100.00;94093.00;5072464;28;20624;-76
2021/08/15 00:21:20;;;;;;;22.85;12.25;;;;;;;16.91;100.00;94089.09;5072312;28;20217;-78
2021/08/15 00:23:48;;;;;;;20.10;11.60;;;;;;;16.94;100.00;94085.19;5072286;28;20658;-78
2021/08/15 00:26:15;;;;;;;21.17;12.40;;;;;;;17.08;100.00;94078.63;5072502;28;20199;-79
2021/08/15 00:28:41;;;;;;;22.23;12.80;;;;;;;17.11;100.00;94080.78;5072491;28;20198;-77
2021/08/15 00:31:08;;;;;;;19.67;11.60;;;;;;;17.07;100.00;94073.56;5072414;28;20199;-77
2021/08/15 00:33:34;;;;;;;17.17;10.85;;;;;;;16.96;100.00;94077.84;5072368;28;20648;-77
2021/08/15 00:36:01;;;;;;;18.13;11.38;;;;;;;16.81;100.00;94070.38;5074100;28;20203;-79
2021/08/15 00:38:27;;;;;;;16.42;10.00;;;;;;;16.62;100.00;94062.63;5075702;28;20206;-77
2021/08/15 00:40:55;;;;;;;21.35;11.60;;;;;;;16.59;100.00;94060.44;5076048;28;20230;-77
2021/08/15 00:43:22;;;;;;;19.00;11.05;;;;;;;16.53;100.00;94064.00;5076091;28;20550;-77
2021/08/15 00:45:48;;;;;;;18.77;11.13;;;;;;;16.43;100.00;94069.03;5075793;28;20239;-77
2021/08/15 00:48:15;;;;;;;19.73;13.50;;;;;;;16.39;100.00;94058.16;5074684;28;20795;-77
2021/08/15 00:50:41;;;;;;;21.50;12.85;;;;;;;16.45;100.00;94062.50;5076038;28;20229;-76
2021/08/15 00:53:08;;;;;;;24.80;14.00;;;;;;;16.47;100.00;94054.38;5075919;28;20195;-77
2021/08/15 00:55:35;;;;;;;22.08;12.43;;;;;;;16.52;100.00;94057.13;5075870;28;20199;-77
2021/08/15 00:58:07;;;;;;;19.65;11.43;;;;;;;16.50;100.00;94058.38;5075785;28;20198;-76
2021/08/15 01:00:34;;;;;;;19.60;12.55;;;;;;;16.53;100.00;94053.44;5075621;28;20585;-76
2021/08/15 01:03:00;;;;;;;24.10;13.07;;;;;;;16.65;100.00;94045.53;5075642;28;20206;-78
2021/08/15 01:05:28;;;;;;;24.38;13.52;;;;;;;16.68;100.00;94046.91;5075721;28;20202;-77
2021/08/15 01:07:54;;;;;;;22.65;12.57;;;;;;;16.68;100.00;94042.44;5075714;28;20207;-76
2021/08/15 01:10:21;;;;;;;25.45;13.65;;;;;;;16.70;100.00;94040.34;5075607;28;20221;-77
2021/08/15 01:12:49;;;;;;;24.40;14.00;;;;;;;16.73;100.00;94034.63;5075664;28;20199;-76
2021/08/15 01:15:18;;;;;;;26.55;13.52;;;;;;;16.74;100.00;94035.44;5075419;28;20563;-77
2021/08/15 01:17:45;;;;;;;23.85;12.93;;;;;;;16.68;100.00;94033.72;5075400;28;20202;-76
2021/08/15 01:20:12;;;;;;;20.98;13.20;;;;;;;16.52;100.00;94029.94;5074429;28;20912;-76
2021/08/15 01:22:39;;;;;;;19.02;11.43;;;;;;;16.38;100.00;94034.66;5075246;28;20203;-77
2021/08/15 01:25:07;;;;;;;19.67;10.82;;;;;;;16.34;100.00;94036.16;5075139;28;20203;-78
2021/08/15 01:27:40;;;;;;;21.35;12.82;;;;;;;16.37;100.00;94039.16;5075330;28;20199;-78
2021/08/15 01:30:11;;;;;;;22.27;13.80;;;;;;;16.51;100.00;94028.38;5075143;28;20260;-78
2021/08/15 01:32:38;;;;;;;24.20;13.93;;;;;;;16.56;100.00;94034.53;5075328;28;20203;-76
2021/08/15 01:35:06;;;;;;;24.13;14.55;;;;;;;16.65;100.00;94030.53;5074954;28;20198;-77
2021/08/15 01:37:32;;;;;;;26.25;13.77;;;;;;;16.71;100.00;94030.63;5075142;28;20198;-77
2021/08/15 01:40:02;;;;;;;26.52;13.25;;;;;;;16.77;100.00;94027.03;5075826;28;20222;-77
2021/08/15 01:42:29;;;;;;;23.52;12.98;;;;;;;16.72;100.00;94029.56;5075422;28;20198;-77
2021/08/15 01:44:56;;;;;;;20.88;13.52;;;;;;;16.69;100.00;94025.59;5075135;28;20233;-78
2021/08/15 01:47:23;;;;;;;25.33;13.73;;;;;;;16.68;100.00;94028.44;5074147;28;20203;-78
2021/08/15 01:49:51;;;;;;;24.40;13.43;;;;;;;16.85;100.00;94018.00;5074884;28;20195;-78
2021/08/15 01:52:17;;;;;;;23.50;13.40;;;;;;;16.96;100.00;94020.63;5074739;28;20203;-78
2021/08/15 01:54:44;;;;;;;25.70;13.45;;;;;;;17.00;100.00;94020.94;5074718;28;20210;-77
2021/08/15 01:57:10;;;;;;;20.63;12.27;;;;;;;16.91;100.00;94009.97;5074425;28;20656;-76
2021/08/15 01:59:37;;;;;;;23.42;12.23;;;;;;;16.80;100.00;94005.47;5074682;28;20226;-77
2021/08/15 02:02:04;;;;;;;19.83;11.93;;;;;;;16.63;100.00;94008.84;5074700;28;20226;-77
2021/08/15 02:04:32;;;;;;;18.23;11.95;;;;;;;16.58;100.00;94006.09;5074581;28;20190;-77
2021/08/15 02:06:58;;;;;;;21.50;12.90;;;;;;;16.57;100.00;94012.44;5074435;28;20207;-79
2021/08/15 02:09:25;;;;;;;23.45;13.40;;;;;;;16.59;100.00;94009.56;5074305;28;20198;-78
2021/08/15 02:11:52;;;;;;;19.92;12.60;;;;;;;16.60;100.00;94003.22;5074284;28;20210;-78
2021/08/15 02:14:18;;;;;;;25.77;11.85;;;;;;;16.55;100.00;94008.41;5074345;28;20203;-77
2021/08/15 02:16:45;;;;;;;20.08;13.05;;;;;;;16.55;100.00;94001.28;5074379;28;20206;-79
2021/08/15 02:19:11;;;;;;;27.63;13.52;;;;;;;16.52;100.00;94001.78;5074158;28;20195;-77
2021/08/15 02:21:39;;;;;;;21.90;12.75;;;;;;;16.53;100.00;93995.44;5074113;28;20207;-77
2021/08/15 02:24:06;;;;;;;21.10;11.95;;;;;;;16.50;100.00;94001.19;5074010;28;20680;-77
2021/08/15 02:26:32;;;;;;;21.17;12.48;;;;;;;16.49;100.00;94002.22;5074140;28;20199;-77
2021/08/15 02:28:58;;;;;;;27.73;13.20;;;;;;;16.41;100.00;93999.94;5074139;28;20206;-76
2021/08/15 02:31:25;;;;;;;25.95;13.88;;;;;;;16.50;100.00;93993.28;5073481;28;20210;-78
2021/08/15 02:33:51;;;;;;;24.98;13.30;;;;;;;16.53;100.00;93995.44;5073881;28;20206;-76
2021/08/15 02:36:18;;;;;;;21.02;12.57;;;;;;;16.46;100.00;93992.94;5073828;28;20615;-78
2021/08/15 02:38:46;;;;;;;24.85;12.98;;;;;;;16.50;100.00;93984.56;5073632;28;20562;-79
2021/08/15 02:41:12;;;;;;;21.75;13.57;;;;;;;16.46;100.00;93992.94;5073586;28;20230;-76
2021/08/15 02:43:39;;;;;;;20.02;12.10;;;;;;;16.40;100.00;93985.16;5073789;28;20203;-78
2021/08/15 02:46:05;;;;;;;25.13;13.98;;;;;;;16.50;100.00;93989.84;5073467;28;20245;-76
2021/08/15 02:48:32;;;;;;;21.52;13.57;;;;;;;16.48;100.00;93987.44;5073715;28;20561;-77
2021/08/15 02:50:58;;;;;;;21.15;12.52;;;;;;;16.39;100.00;93989.63;5073503;28;20243;-79
2021/08/15 02:53:25;;;;;;;22.58;12.43;;;;;;;16.44;100.00;93988.94;5073404;28;20202;-79
2021/08/15 02:55:53;;;;;;;22.33;13.40;;;;;;;16.35;100.00;93992.97;5073625;28;20229;-78
2021/08/15 02:58:19;;;;;;;21.40;12.88;;;;;;;16.35;100.00;93987.69;5072563;28;20201;-78
2021/08/15 03:00:46;;;;;;;21.67;12.90;;;;;;;16.31;100.00;93991.84;5073337;28;20222;-77
2021/08/15 03:03:12;;;;;;;20.05;12.77;;;;;;;16.28;100.00;93993.06;5073357;28;20285;-77
2021/08/15 03:05:39;;;;;;;25.15;13.65;;;;;;;16.27;100.00;93992.28;5073269;28;20199;-76
2021/08/15 03:08:06;;;;;;;22.80;12.82;;;;;;;16.25;100.00;93986.44;5073201;28;20214;-78
2021/08/15 03:10:32;;;;;;;21.92;13.13;;;;;;;16.23;100.00;93991.13;5073385;28;20215;-77
2021/08/15 03:13:00;;;;;;;23.75;14.38;;;;;;;16.27;100.00;93986.22;5073284;28;20287;-77
2021/08/15 03:15:26;;;;;;;20.90;13.88;;;;;;;16.27;100.00;93983.59;5073549;28;20225;-77
2021/08/15 03:17:53;;;;;;;28.48;14.20;;;;;;;16.36;100.00;93984.03;5073252;28;20204;-77
2021/08/15 03:20:19;;;;;;;27.00;12.98;;;;;;;16.38;100.00;93979.31;5072903;28;20227;-77
2021/08/15 03:22:46;;;;;;;28.40;13.15;;;;;;;16.40;100.00;93979.88;5073002;28;20665;-77
2021/08/15 03:25:12;;;;;;;26.75;12.50;;;;;;;16.46;100.00;93973.69;5073086;28;20225;-77
2021/08/15 03:27:39;;;;;;;23.38;13.05;;;;;;;16.45;100.00;93972.91;5072958;28;20684;-77
2021/08/15 03:30:07;;;;;;;19.20;12.07;;;;;;;16.42;100.00;93968.09;5073072;28;20206;-75
2021/08/15 03:32:34;;;;;;;21.17;12.57;;;;;;;16.39;100.00;93967.75;5073508;28;20203;-78
2021/08/15 03:35:00;;;;;;;21.15;12.30;;;;;;;16.38;100.00;93960.88;5072854;28;20623;-79
2021/08/15 03:37:27;;;;;;;18.95;12.45;;;;;;;16.37;100.00;93964.53;5073069;28;20210;-79
2021/08/15 03:39:54;;;;;;;21.35;11.77;;;;;;;16.33;100.00;93963.41;5072907;28;20223;-78
2021/08/15 03:42:20;;;;;;;20.65;12.35;;;;;;;16.36;100.00;93957.69;5072944;28;20207;-77
2021/08/15 03:44:46;;;;;;;20.05;13.43;;;;;;;16.32;100.00;93961.78;5071479;28;20442;-76
2021/08/15 03:47:14;;;;;;;21.30;12.80;;;;;;;16.23;100.00;93956.09;5072719;28;20210;-78
2021/08/15 03:49:41;;;;;;;25.58;12.52;;;;;;;16.15;100.00;93957.22;5072657;28;20210;-78
2021/08/15 03:52:07;;;;;;;20.38;12.60;;;;;;;16.19;100.00;93963.66;5072991;28;20547;-77
2021/08/15 03:54:34;;;;;;;22.95;11.95;;;;;;;16.28;100.00;93956.19;5072907;28;20198;-76
2021/08/15 03:57:00;;;;;;;19.77;12.60;;;;;;;16.32;100.00;93954.72;5072662;28;20281;-76
2021/08/15 03:59:26;;;;;;;27.27;12.63;;;;;;;16.34;100.00;93950.00;5072739;28;20210;-78
2021/08/15 04:01:53;;;;;;;17.25;11.88;;;;;;;16.39;100.00;93942.19;5072538;28;20223;-76
2021/08/15 04:04:21;;;;;;;21.55;12.82;;;;;;;16.45;100.00;93951.00;5072974;28;20199;-76
2021/08/15 04:06:47;;;;;;;25.85;12.68;;;;;;;16.51;100.00;93946.66;5072528;28;20660;-75
2021/08/15 04:09:14;;;;;;;22.88;11.90;;;;;;;16.50;100.00;93945.84;5073015;28;20654;-78
2021/08/15 04:11:40;;;;;;;20.75;11.63;;;;;;;16.54;100.00;93943.56;5076573;28;20206;-76
2021/08/15 04:14:07;;;;;;;22.10;12.45;;;;;;;16.54;100.00;93944.34;5076635;28;20600;-76
2021/08/15 04:16:33;;;;;;;23.02;11.85;;;;;;;16.52;100.00;93949.06;5076423;28;20557;-76
2021/08/15 04:19:00;;;;;;;26.27;12.27;;;;;;;16.51;100.00;93950.09;5076482;28;20206;-76
2021/08/15 04:21:28;;;;;;;20.73;11.48;;;;;;;16.53;100.00;93939.31;5076484;28;20226;-76
2021/08/15 04:23:54;;;;;;;20.45;11.35;;;;;;;16.60;100.00;93940.78;5076439;28;20213;-78
2021/08/15 04:26:21;;;;;;;18.13;10.93;;;;;;;16.61;100.00;93938.94;5076400;28;20206;-77
2021/08/15 04:28:47;;;;;;;22.25;11.40;;;;;;;16.72;100.00;93939.94;5076324;28;20194;-78
2021/08/15 04:31:14;;;;;;;22.42;11.57;;;;;;;16.74;100.00;93940.53;5076126;28;20199;-78
2021/08/15 04:33:40;;;;;;;21.60;11.45;;;;;;;16.77;100.00;93937.38;5076121;28;20964;-79
2021/08/15 04:36:06;;;;;;;22.67;11.90;;;;;;;16.85;100.00;93923.88;5076273;28;20211;-76
2021/08/15 04:38:34;;;;;;;19.33;10.90;;;;;;;16.89;100.00;93922.38;5075799;28;20199;-78
2021/08/15 04:41:01;;;;;;;17.38;10.82;;;;;;;16.91;100.00;93944.03;5075941;28;20237;-77
2021/08/15 04:43:27;;;;;;;21.30;10.80;;;;;;;16.94;100.00;93940.94;5076070;28;20202;-77
2021/08/15 04:45:54;;;;;;;17.98;10.60;;;;;;;16.92;100.00;93950.91;5075599;28;20231;-77
2021/08/15 04:48:20;;;;;;;15.43;9.77;;;;;;;16.79;100.00;93948.53;5076091;28;20201;-78
2021/08/15 04:50:47;;;;;;;17.33;9.80;;;;;;;16.71;100.00;93948.91;5076030;28;20203;-78
2021/08/15 04:53:13;;;;;;;18.48;11.27;;;;;;;16.88;100.00;93935.78;5075935;28;20227;-78
2021/08/15 04:55:41;;;;;;;17.27;10.82;;;;;;;17.11;100.00;93937.53;5075903;28;20201;-79
2021/08/15 04:58:07;;;;;;;20.00;10.77;;;;;;;17.22;100.00;93936.69;5075761;28;20202;-80
2021/08/15 05:00:34;;;;;;;18.77;10.57;;;;;;;17.26;100.00;93940.44;5075546;28;20234;-77
2021/08/15 05:03:02;;;;;;;17.40;10.75;;;;;;;17.27;100.00;93942.03;5075796;28;20206;-76
2021/08/15 05:05:28;;;;;;;17.98;10.30;;;;;;;17.24;100.00;93939.88;5075739;28;20198;-78
2021/08/15 05:07:55;;;;;;;16.27;9.95;;;;;;;17.22;100.00;93936.69;5075653;28;20209;-76
2021/08/15 05:10:21;;;;;;;18.95;9.52;;;;;;;17.25;100.00;93941.47;5075672;28;20207;-76
2021/08/15 05:12:49;;;;;;;22.65;10.80;;;;;;;17.27;100.00;93942.03;5074793;28;20456;-76
2021/08/15 05:15:15;;;;;;;20.02;10.02;;;;;;;17.27;100.00;93934.13;5075626;28;20195;-76
2021/08/15 05:17:42;;;;;;;16.08;9.98;;;;;;;17.30;100.00;93946.84;5075629;28;20221;-78
2021/08/15 05:20:09;;;;;;;17.98;9.38;;;;;;;17.33;100.00;93956.91;5075526;28;20206;-78
2021/08/15 05:22:36;;;;;;;15.43;10.40;;;;;;;17.35;100.00;93954.84;5074704;28;20206;-77
2021/08/15 05:25:03;;;;;;;14.90;9.77;;;;;;;17.41;100.00;93942.53;5076036;28;20210;-77
2021/08/15 05:27:29;;;;;;;18.20;10.05;;;;;;;17.48;100.00;93947.66;5075371;28;20292;-76
2021/08/15 05:29:57;;;;;;;17.13;10.32;;;;;;;17.51;100.00;93952.47;5075422;28;20199;-77
2021/08/15 05:32:23;;;;;;;17.70;9.65;;;;;;;17.58;100.00;93958.38;5075077;28;20199;-77
2021/08/15 05:34:50;;;;;;;18.52;9.80;;;;;;;17.72;100.00;93956.25;5075198;28;20209;-78
2021/08/15 05:37:16;;;;;;;17.50;9.70;;;;;;;17.90;100.00;93956.03;5075098;28;20565;-77
2021/08/15 05:39:43;;;;;;;16.33;9.68;;;;;;;18.05;100.00;93952.00;5074952;28;20198;-77
2021/08/15 05:42:09;;;;;;;14.90;9.20;;;;;;;18.16;100.00;93951.09;5074756;28;20723;-78
2021/08/15 05:44:36;;;;;;;16.60;8.73;;;;;;;18.31;100.00;93953.16;5075014;28;20246;-77
2021/08/15 05:47:04;;;;;;;18.27;9.40;;;;;;;18.50;100.00;93945.72;5074998;28;20206;-77
2021/08/15 05:49:31;;;;;;;13.65;8.63;;;;;;;18.59;100.00;93946.91;5074855;28;20256;-76
2021/08/15 05:51:58;;;;;;;16.13;9.60;;;;;;;18.67;100.00;93941.19;5074634;28;20203;-76
2021/08/15 05:54:24;;;;;;;16.80;9.27;;;;;;;18.77;100.00;93937.88;5074708;28;20245;-76
2021/08/15 05:56:50;;;;;;;18.45;9.38;;;;;;;18.82;100.00;93926.56;5074216;28;20445;-76
2021/08/15 05:59:17;;;;;;;16.13;8.73;;;;;;;18.92;100.00;93934.63;5074756;28;20206;-77
2021/08/15 06:01:43;;;;;;;16.25;8.77;;;;;;;19.11;100.00;93927.13;5074407;28;20697;-79
2021/08/15 06:04:11;;;;;;;12.90;8.20;;;;;;;19.18;100.00;93933.03;5074559;28;20199;-78
2021/08/15 06:06:38;;;;;;;12.35;8.20;;;;;;;19.20;100.00;93930.94;5074525;28;20205;-77
2021/08/15 06:09:04;;;;;;;16.40;8.45;;;;;;;19.26;100.00;93923.84;5074317;28;20201;-76
2021/08/15 06:11:31;;;;;;;16.83;8.95;;;;;;;19.40;100.00;93924.22;5074371;28;20672;-76
2021/08/15 06:13:58;;;;;;;19.27;8.32;;;;;;;19.47;100.00;93919.53;5074434;28;20237;-78
2021/08/15 06:16:26;;;;;;;15.35;8.68;;;;;;;19.58;100.00;93910.63;5074409;28;20207;-77
2021/08/15 06:18:52;;;;;;;14.07;7.82;;;;;;;19.67;100.00;93918.91;5074413;28;20232;-78
2021/08/15 06:21:20;;;;;;;17.20;8.45;;;;;;;19.77;100.00;93923.50;5074158;28;20229;-77
2021/08/15 06:23:48;;;;;;;10.90;8.13;;;;;;;19.91;100.00;93919.34;5074034;28;20203;-77
2021/08/15 06:26:14;;;;;;;12.05;7.30;;;;;;;20.08;100.00;93913.09;5074177;28;20198;-77
2021/08/15 06:28:41;;;;;;;14.30;7.88;;;;;;;20.33;100.00;93915.91;5074216;28;20207;-77
2021/08/15 06:31:07;;;;;;;15.30;7.15;;;;;;;20.56;100.00;93910.44;5073982;28;20198;-77
2021/08/15 06:33:37;;;;;;;14.27;7.35;;;;;;;20.83;100.00;93902.31;5073834;28;20210;-78
2021/08/15 06:36:04;;;;;;;10.40;7.20;;;;;;;21.28;100.00;93903.47;5073793;28;20195;-78
2021/08/15 06:38:32;;;;;;;11.75;6.88;;;;;;;21.44;100.00;93909.59;5074199;28;20238;-77
2021/08/15 06:40:58;;;;;;;10.93;7.03;;;;;;;21.66;100.00;93898.75;5073297;28;20462;-78
2021/08/15 06:43:25;;;;;;;10.80;6.50;;;;;;;21.71;100.00;93900.59;5073704;28;20191;-77
2021/08/15 06:45:51;;;;;;;12.07;6.72;;;;;;;22.01;100.00;93899.78;5073484;28;20234;-77
2021/08/15 06:48:18;;;;;;;11.68;6.82;;;;;;;22.16;100.00;93885.66;5073690;28;20226;-77
2021/08/15 06:50:44;;;;;;;11.10;6.85;;;;;;;22.37;100.00;93893.63;5073468;28;20675;-77
2021/08/15 06:53:11;;;;;;;13.57;7.00;;;;;;;22.44;100.00;93892.25;5073441;28;20194;-77
2021/08/15 06:55:38;;;;;;;12.43;7.45;;;;;;;22.42;100.00;93881.09;5073582;28;20203;-77
2021/08/15 06:58:05;;;;;;;11.23;6.72;;;;;;;22.48;100.00;93887.97;5073578;28;20222;-78
2021/08/15 07:00:31;;;;;;;12.35;7.18;;;;;;;22.47;100.00;93883.72;5073063;28;20202;-78
2021/08/15 07:02:59;;;;;;;12.77;7.18;;;;;;;22.62;100.00;93887.41;5073396;28;20551;-77
2021/08/15 07:05:26;;;;;;;13.07;6.95;;;;;;;22.89;100.00;93887.00;5073220;28;20202;-77
2021/08/15 07:07:53;;;;;;;16.13;7.25;;;;;;;23.21;100.00;93897.22;5073469;28;20203;-77
2021/08/15 07:10:19;;;;;;;9.95;6.20;;;;;;;23.33;99.40;93896.06;5073155;28;20199;-77
2021/08/15 07:12:52;;;;;;;12.50;7.28;;;;;;;23.39;95.92;93905.63;5073384;28;20210;-77
2021/08/15 07:15:19;;;;;;;10.98;6.97;;;;;;;23.58;97.28;93892.41;5072998;28;20560;-77
2021/08/15 07:17:47;;;;;;;11.45;6.72;;;;;;;23.80;95.27;93894.66;5073171;28;20202;-77
2021/08/15 07:20:15;;;;;;;17.02;7.82;;;;;;;23.69;89.19;93899.28;5073261;28;20207;-77
2021/08/15 07:22:42;;;;;;;13.93;7.30;;;;;;;23.75;90.85;93895.50;5073088;28;20233;-77
2021/08/15 07:25:09;;;;;;;11.75;6.70;;;;;;;24.13;97.71;93901.06;5073173;28;20202;-77
2021/08/15 07:27:36;;;;;;;11.70;6.75;;;;;;;24.69;96.22;93902.31;5073021;28;20198;-76
2021/08/15 07:30:05;;;;;;;12.48;7.38;;;;;;;24.63;94.48;93900.00;5073022;28;20199;-77
2021/08/15 07:32:34;;;;;;;18.48;7.32;;;;;;;24.87;92.43;93908.00;5072847;28;20206;-77
2021/08/15 07:35:01;;;;;;;15.80;6.60;;;;;;;25.06;91.81;93902.66;5073142;28;20561;-77
2021/08/15 07:37:28;;;;;;;10.82;7.00;;;;;;;25.09;91.50;93905.53;5072895;28;20202;-77
2021/08/15 07:39:54;;;;;;;15.27;6.93;;;;;;;25.25;93.33;93903.47;5072901;28;20203;-78
2021/08/15 07:42:21;;;;;;;11.30;6.93;;;;;;;25.36;92.92;93898.78;5072808;28;20223;-77
2021/08/15 07:44:48;;;;;;;11.50;6.75;;;;;;;25.44;87.50;93892.78;5072292;28;20230;-78
2021/08/15 07:47:16;;;;;;;12.05;6.85;;;;;;;25.36;86.46;93888.09;5072757;28;20561;-77
2021/08/15 07:49:42;;;;;;;10.63;6.35;;;;;;;25.39;87.18;93890.19;5072705;28;20201;-78
2021/08/15 07:52:09;;;;;;;16.38;7.32;;;;;;;25.28;87.01;93894.09;5072660;28;20654;-77
2021/08/15 07:54:35;;;;;;;13.38;6.95;;;;;;;25.03;86.25;93895.22;5072942;28;20198;-77
2021/08/15 07:57:02;;;;;;;9.77;6.50;;;;;;;25.19;89.33;93890.47;5072697;28;20198;-76
2021/08/15 07:59:28;;;;;;;10.82;6.93;;;;;;;25.35;87.35;93894.53;5072728;28;20650;-77
2021/08/15 08:01:55;;;;;;;10.07;6.18;;;;;;;25.35;85.74;93904.41;5072424;28;20233;-77
2021/08/15 08:04:23;;;;;;;11.75;6.75;;;;;;;25.51;86.91;93887.06;5072793;28;20285;-77
2021/08/15 08:06:50;;;;;;;14.85;6.97;;;;;;;25.18;87.93;93889.69;5072618;28;20246;-77
2021/08/15 08:09:19;;;;;;;13.07;6.80;;;;;;;25.02;86.10;93899.78;5072629;28;20732;-76
2021/08/15 08:11:45;;;;;;;11.43;6.60;;;;;;;25.15;85.04;93895.59;5072571;28;20202;-77
2021/08/15 08:14:11;;;;;;;14.45;7.53;;;;;;;25.30;85.84;93897.28;5072410;28;20198;-77
2021/08/15 08:16:38;;;;;;;15.88;6.75;;;;;;;25.70;92.50;93887.03;5072744;28;20554;-78
2021/08/15 08:19:04;;;;;;;12.88;6.57;;;;;;;26.27;80.69;93896.81;5072648;28;20561;-77
2021/08/15 08:21:32;;;;;;;13.52;6.28;;;;;;;26.21;79.85;93888.88;5072531;28;20230;-77
2021/08/15 08:24:02;;;;;;;12.43;6.53;;;;;;;26.63;82.17;93883.56;5072499;28;20199;-77
2021/08/15 08:26:28;;;;;;;13.73;6.32;;;;;;;27.00;77.53;93875.56;5072296;28;20289;-77
2021/08/15 08:28:55;;;;;;;12.60;6.28;;;;;;;26.99;76.09;93868.63;5072665;28;20194;-77
2021/08/15 08:31:22;;;;;;;16.48;6.88;;;;;;;26.47;80.54;93869.63;5072481;28;20286;-77
2021/08/15 08:33:48;;;;;;;11.45;6.20;;;;;;;25.99;81.23;93859.28;5072562;28;20210;-77
2021/08/15 08:36:15;;;;;;;10.88;5.70;;;;;;;26.03;79.63;93854.97;5072387;28;20209;-77
2021/08/15 08:38:42;;;;;;;15.88;6.63;;;;;;;26.26;79.12;93855.84;5072333;28;20199;-76
2021/08/15 08:41:11;;;;;;;13.48;7.40;;;;;;;25.71;81.19;93861.09;5072129;28;20547;-77
2021/08/15 08:43:38;;;;;;;12.55;7.10;;;;;;;25.61;83.20;93867.41;5072126;28;20208;-77
2021/08/15 08:46:05;;;;;;;15.63;6.40;;;;;;;25.65;82.78;93857.72;5071505;28;20227;-77
2021/08/15 08:48:34;;;;;;;15.75;6.65;;;;;;;26.07;85.41;93855.94;5072397;28;20203;-77
2021/08/15 08:51:00;;;;;;;8.48;5.80;;;;;;;26.33;78.73;93866.16;5072105;28;20662;-77
2021/08/15 08:53:27;;;;;;;16.75;6.72;;;;;;;26.68;83.60;93861.22;5072241;28;20229;-77
2021/08/15 08:55:55;;;;;;;12.07;6.45;;;;;;;27.27;79.67;93863.97;5072173;28;20202;-77
2021/08/15 08:58:22;;;;;;;13.43;6.63;;;;;;;27.57;74.52;93881.28;5074938;28;20209;-77
2021/08/15 09:00:50;;;;;;;14.27;6.43;;;;;;;27.69;72.69;93870.78;5075721;28;20696;-77
2021/08/15 09:03:17;;;;;;;12.10;5.90;;;;;;;27.76;77.51;93869.56;5075541;28;20692;-77
2021/08/15 09:05:51;;;;;;;12.88;6.03;;;;;;;27.68;72.00;93866.53;5075614;28;20205;-77
2021/08/15 09:08:25;;;;;;;14.02;6.00;;;;;;;27.95;71.99;93864.81;5082899;28;20565;-77
2021/08/15 09:10:52;;;;;;;14.07;6.22;;;;;;;27.61;74.94;93866.16;5084957;28;20204;-77
2021/08/15 09:13:25;;;;;;;13.30;6.15;;;;;;;27.88;77.11;93856.38;5078004;28;20202;-77
2021/08/15 09:15:55;;;;;;;9.77;6.15;;;;;;;27.49;80.75;93855.19;5075390;28;20212;-78
2021/08/15 09:18:32;;;;;;;13.13;6.32;;;;;;;27.23;75.88;93857.63;5055600;28;20704;-77
2021/08/15 09:20:59;;;;;;;11.65;6.90;;;;;;;27.04;75.41;93855.09;5055439;28;20203;-77
2021/08/15 09:23:28;;;;;;;11.30;6.03;;;;;;;26.79;74.34;93849.19;5055314;28;20231;-77
2021/08/15 09:26:18;;;;;;;12.07;6.28;;;;;;;26.70;74.14;93851.00;5055325;28;20242;-76
2021/08/15 09:28:48;;;;;;;13.95;5.90;;;;;;;26.70;77.02;93849.13;5055252;28;20206;-78
2021/08/15 09:31:24;;;;;;;15.88;6.50;;;;;;;26.83;75.07;93847.53;5055053;28;20219;-77
2021/08/15 09:33:51;;;;;;;13.82;6.32;;;;;;;26.76;76.33;93845.25;5055347;28;20207;-77
2021/08/15 09:36:34;;;;;;;11.38;6.45;;;;;;;26.65;76.22;93849.22;5055003;28;20207;-77
2021/08/15 09:39:03;;;;;;;16.38;6.28;;;;;;;26.48;73.62;93844.47;5055239;28;20203;-77
2021/08/15 09:41:32;;;;;;;12.70;6.43;;;;;;;26.65;74.05;93849.22;5054790;28;20213;-76
2021/08/15 09:44:22;;;;;;;8.80;5.68;;;;;;;27.04;75.87;93847.06;5054849;28;20203;-77
2021/08/15 09:47:04;;;;;;;11.38;5.80;;;;;;;27.52;76.72;93841.16;5054655;28;20318;-77
2021/08/15 09:49:36;;;;;;;17.67;6.95;;;;;;;27.65;69.03;93845.66;5054868;28;20210;-77
2021/08/15 09:52:04;;;;;;;11.60;5.15;;;;;;;28.22;68.78;93845.03;5054735;28;20282;-78
2021/08/15 09:54:31;;;;;;;14.18;6.45;;;;;;;28.63;69.23;93843.16;5054694;28;20677;-77
2021/08/15 09:56:58;;;;;;;13.45;5.68;;;;;;;28.59;69.44;93837.63;5054803;28;20213;-77
2021/08/15 09:59:34;;;;;;;10.63;5.80;;;;;;;28.75;66.52;93832.56;5054709;28;20203;-77
2021/08/15 10:02:01;;;;;;;7.18;5.07;;;;;;;28.60;68.00;93827.66;5054563;28;20227;-78
2021/08/15 10:04:28;;;;;;;12.73;6.15;;;;;;;28.28;67.83;93821.53;5054357;28;20210;-77
2021/08/15 10:06:56;;;;;;;15.32;5.78;;;;;;;27.93;68.23;93826.75;5054117;28;20207;-77
2021/08/15 10:09:24;;;;;;;13.32;6.05;;;;;;;28.19;68.01;93826.06;5054610;28;20200;-77
2021/08/15 10:11:53;;;;;;;15.40;6.32;;;;;;;27.81;69.74;93815.75;5054537;28;20199;-77
2021/08/15 10:14:20;;;;;;;11.30;5.13;;;;;;;28.14;69.43;93827.00;5054388;28;20204;-78
2021/08/15 10:16:53;;;;;;;11.25;5.72;;;;;;;28.39;68.20;93830.88;5054342;28;20206;-77
2021/08/15 10:19:29;;;;;;;13.60;5.50;;;;;;;28.64;66.63;93825.91;5054575;28;20226;-77
2021/08/15 10:21:58;;;;;;;16.67;6.10;;;;;;;28.69;67.07;93817.69;5054228;28;20215;-77
2021/08/15 10:24:41;;;;;;;14.00;5.90;;;;;;;28.57;69.55;93817.53;5054270;28;20768;-77
2021/08/15 10:27:08;;;;;;;17.15;6.55;;;;;;;28.38;68.86;93815.88;5054162;28;20346;-77
2021/08/15 10:29:43;;;;;;;13.65;6.25;;;;;;;28.66;67.95;93814.84;5054030;28;20199;-78
2021/08/15 10:32:19;;;;;;;10.35;5.88;;;;;;;28.70;70.91;93800.47;5054156;28;20230;-77
2021/08/15 10:35:14;;;;;;;16.60;6.72;;;;;;;28.93;69.30;93793.06;5054117;28;20199;-77
2021/08/15 10:37:41;;;;;;;20.08;6.50;;;;;;;28.86;69.39;93794.63;5053802;28;20655;-78
2021/08/15 10:40:28;;;;;;;14.95;5.97;;;;;;;29.00;69.40;93786.44;5072930;28;20606;-77
2021/08/15 10:42:55;;;;;;;11.68;5.55;;;;;;;28.90;70.69;93776.78;5073592;28;20234;-77
2021/08/15 10:45:23;;;;;;;15.25;6.18;;;;;;;29.10;66.06;93773.47;5073652;28;20256;-77
2021/08/15 10:48:33;;;;;;;14.40;6.55;;;;;;;28.97;72.79;93769.03;5073829;28;20555;-77
2021/08/15 10:51:01;;;;;;;12.98;5.75;;;;;;;29.39;69.31;93766.66;5053200;28;20294;-76
2021/08/15 10:53:37;;;;;;;11.10;6.32;;;;;;;29.64;65.00;93772.28;5073734;28;20195;-77
2021/08/15 10:56:06;;;;;;;15.45;6.40;;;;;;;29.07;67.48;93776.00;5073622;28;20207;-77
2021/08/15 10:58:39;;;;;;;11.15;6.50;;;;;;;29.23;66.43;93779.00;5073542;28;20202;-77
2021/08/15 11:01:07;;;;;;;14.15;6.07;;;;;;;29.08;67.17;93762.25;5073634;28;20193;-77
2021/08/15 11:03:53;;;;;;;12.43;6.20;;;;;;;29.00;68.50;93754.97;5073454;28;20237;-77
2021/08/15 11:06:47;;;;;;;18.23;6.30;;;;;;;29.49;69.73;93749.38;5073559;28;20600;-77
2021/08/15 11:09:14;;;;;;;12.07;5.93;;;;;;;29.38;67.43;93743.56;5073259;28;20708;-77
2021/08/15 11:12:10;;;;;;;13.18;5.88;;;;;;;29.62;67.70;93736.84;5073306;28;20202;-77
2021/08/15 11:14:52;;;;;;;16.45;6.95;;;;;;;29.47;71.59;93732.78;5073425;28;20209;-76
2021/08/15 11:17:19;;;;;;;16.25;6.43;;;;;;;29.71;66.23;93729.53;5073099;28;20207;-77
2021/08/15 11:19:45;;;;;;;14.90;6.40;;;;;;;29.50;68.52;93730.22;5072361;28;20214;-76
2021/08/15 11:22:16;;;;;;;11.73;5.97;;;;;;;29.96;66.41;93721.69;5073119;28;20206;-77